sensor_id;sensor_type;location;lat;lon;timestamp;temperature;humidity
1614;DHT22;800;48.824;9.346;2023-12-14T00:00:25;15.50;57.50
1614;DHT22;800;48.824;9.346;2023-12-14T00:02:51;15.30;56.80
1614;DHT22;800;48.824;9.346;2023-12-14T00:05:16;15.40;56.90
1614;DHT22;800;48.824;9.346;2023-12-14T00:07:42;15.40;56.80
1614;DHT22;800;48.824;9.346;2023-12-14T00:10:08;15.50;57.10
1614;DHT22;800;48.824;9.346;2023-12-14T00:12:33;15.50;57.20
1614;DHT22;800;48.824;9.346;2023-12-14T00:14:59;15.40;57.20
1614;DHT22;800;48.824;9.346;2023-12-14T00:17:24;15.30;57.60
1614;DHT22;800;48.824;9.346;2023-12-14T00:19:50;15.20;56.80
1614;DHT22;800;48.824;9.346;2023-12-14T00:22:15;14.90;56.70
1614;DHT22;800;48.824;9.346;2023-12-14T00:24:41;14.70;57.10
1614;DHT22;800;48.824;9.346;2023-12-14T00:27:07;14.60;57.50
1614;DHT22;800;48.824;9.346;2023-12-14T00:29:32;14.50;57.90
1614;DHT22;800;48.824;9.346;2023-12-14T00:31:58;14.40;58.70
1614;DHT22;800;48.824;9.346;2023-12-14T00:34:24;14.20;58.50
1614;DHT22;800;48.824;9.346;2023-12-14T00:36:49;14.10;58.90
1614;DHT22;800;48.824;9.346;2023-12-14T00:39:15;14.10;59.20
1614;DHT22;800;48.824;9.346;2023-12-14T00:41:40;14.00;59.40
1614;DHT22;800;48.824;9.346;2023-12-14T00:44:06;14.00;59.40
1614;DHT22;800;48.824;9.346;2023-12-14T00:46:32;13.90;59.60
1614;DHT22;800;48.824;9.346;2023-12-14T00:48:57;13.80;59.90
1614;DHT22;800;48.824;9.346;2023-12-14T00:51:23;13.80;59.90
1614;DHT22;800;48.824;9.346;2023-12-14T00:53:48;13.60;60.30
1614;DHT22;800;48.824;9.346;2023-12-14T00:56:14;13.60;60.60
1614;DHT22;800;48.824;9.346;2023-12-14T00:58:39;13.60;60.60
1614;DHT22;800;48.824;9.346;2023-12-14T01:01:05;13.50;60.70
1614;DHT22;800;48.824;9.346;2023-12-14T01:03:30;13.50;60.70
1614;DHT22;800;48.824;9.346;2023-12-14T01:05:56;13.50;60.70
1614;DHT22;800;48.824;9.346;2023-12-14T01:08:22;13.50;60.90
1614;DHT22;800;48.824;9.346;2023-12-14T01:10:47;13.50;61.00
1614;DHT22;800;48.824;9.346;2023-12-14T01:13:13;13.50;60.80
1614;DHT22;800;48.824;9.346;2023-12-14T01:15:38;13.40;61.00
1614;DHT22;800;48.824;9.346;2023-12-14T01:18:04;13.30;61.30
1614;DHT22;800;48.824;9.346;2023-12-14T01:20:30;13.30;61.50
1614;DHT22;800;48.824;9.346;2023-12-14T01:22:55;13.40;61.90
1614;DHT22;800;48.824;9.346;2023-12-14T01:25:21;13.30;62.20
1614;DHT22;800;48.824;9.346;2023-12-14T01:27:46;13.30;62.40
1614;DHT22;800;48.824;9.346;2023-12-14T01:30:12;13.30;62.20
1614;DHT22;800;48.824;9.346;2023-12-14T01:32:38;13.30;62.30
1614;DHT22;800;48.824;9.346;2023-12-14T01:35:04;13.30;62.20
1614;DHT22;800;48.824;9.346;2023-12-14T01:37:30;13.30;62.20
1614;DHT22;800;48.824;9.346;2023-12-14T01:39:55;13.30;62.30
1614;DHT22;800;48.824;9.346;2023-12-14T01:42:21;13.40;62.40
1614;DHT22;800;48.824;9.346;2023-12-14T01:44:46;13.40;62.30
1614;DHT22;800;48.824;9.346;2023-12-14T01:47:12;13.40;62.40
1614;DHT22;800;48.824;9.346;2023-12-14T01:49:38;13.40;62.60
1614;DHT22;800;48.824;9.346;2023-12-14T01:52:04;13.40;62.70
1614;DHT22;800;48.824;9.346;2023-12-14T01:54:30;13.40;62.70
1614;DHT22;800;48.824;9.346;2023-12-14T01:56:55;13.50;62.60
1614;DHT22;800;48.824;9.346;2023-12-14T01:59:21;13.50;62.60
1614;DHT22;800;48.824;9.346;2023-12-14T02:01:52;13.40;62.40
1614;DHT22;800;48.824;9.346;2023-12-14T02:04:18;13.40;62.70
1614;DHT22;800;48.824;9.346;2023-12-14T02:06:44;13.40;63.20
1614;DHT22;800;48.824;9.346;2023-12-14T02:09:09;13.30;63.20
1614;DHT22;800;48.824;9.346;2023-12-14T02:11:35;13.30;63.30
1614;DHT22;800;48.824;9.346;2023-12-14T02:14:11;13.30;63.20
1614;DHT22;800;48.824;9.346;2023-12-14T02:16:37;13.30;63.20
1614;DHT22;800;48.824;9.346;2023-12-14T02:19:05;13.30;63.30
1614;DHT22;800;48.824;9.346;2023-12-14T02:21:31;13.30;63.50
1614;DHT22;800;48.824;9.346;2023-12-14T02:23:56;13.30;63.40
1614;DHT22;800;48.824;9.346;2023-12-14T02:26:22;13.40;63.40
1614;DHT22;800;48.824;9.346;2023-12-14T02:28:48;13.40;63.60
1614;DHT22;800;48.824;9.346;2023-12-14T02:31:13;13.40;63.60
1614;DHT22;800;48.824;9.346;2023-12-14T02:33:39;13.40;63.70
1614;DHT22;800;48.824;9.346;2023-12-14T02:36:05;13.40;63.60
1614;DHT22;800;48.824;9.346;2023-12-14T02:38:30;13.40;63.40
1614;DHT22;800;48.824;9.346;2023-12-14T02:40:56;13.30;63.50
1614;DHT22;800;48.824;9.346;2023-12-14T02:43:22;13.30;63.50
1614;DHT22;800;48.824;9.346;2023-12-14T02:45:49;13.30;63.50
1614;DHT22;800;48.824;9.346;2023-12-14T02:48:14;13.30;63.50
1614;DHT22;800;48.824;9.346;2023-12-14T02:50:40;13.30;63.70
1614;DHT22;800;48.824;9.346;2023-12-14T02:53:06;13.30;63.90
1614;DHT22;800;48.824;9.346;2023-12-14T02:55:31;13.30;64.30
1614;DHT22;800;48.824;9.346;2023-12-14T02:57:57;13.20;64.20
1614;DHT22;800;48.824;9.346;2023-12-14T03:00:22;13.30;64.50
1614;DHT22;800;48.824;9.346;2023-12-14T03:02:48;13.30;64.40
1614;DHT22;800;48.824;9.346;2023-12-14T03:05:14;13.20;64.10
1614;DHT22;800;48.824;9.346;2023-12-14T03:07:39;13.20;63.90
1614;DHT22;800;48.824;9.346;2023-12-14T03:10:05;13.30;63.90
1614;DHT22;800;48.824;9.346;2023-12-14T03:12:31;13.30;63.90
1614;DHT22;800;48.824;9.346;2023-12-14T03:14:56;13.30;64.00
1614;DHT22;800;48.824;9.346;2023-12-14T03:17:22;13.30;64.10
1614;DHT22;800;48.824;9.346;2023-12-14T03:19:47;13.30;64.30
1614;DHT22;800;48.824;9.346;2023-12-14T03:22:13;13.30;64.30
1614;DHT22;800;48.824;9.346;2023-12-14T03:24:39;13.30;64.60
1614;DHT22;800;48.824;9.346;2023-12-14T03:27:04;13.30;64.20
1614;DHT22;800;48.824;9.346;2023-12-14T03:29:30;13.20;64.10
1614;DHT22;800;48.824;9.346;2023-12-14T03:31:56;13.20;64.50
1614;DHT22;800;48.824;9.346;2023-12-14T03:34:22;13.20;65.20
1614;DHT22;800;48.824;9.346;2023-12-14T03:36:48;13.20;64.30
1614;DHT22;800;48.824;9.346;2023-12-14T03:39:13;13.20;64.20
1614;DHT22;800;48.824;9.346;2023-12-14T03:41:39;13.30;64.10
1614;DHT22;800;48.824;9.346;2023-12-14T03:44:05;13.30;64.00
1614;DHT22;800;48.824;9.346;2023-12-14T03:46:30;13.20;64.10
1614;DHT22;800;48.824;9.346;2023-12-14T03:48:56;13.20;64.30
1614;DHT22;800;48.824;9.346;2023-12-14T03:51:22;13.20;64.40
1614;DHT22;800;48.824;9.346;2023-12-14T03:53:47;13.20;64.70
1614;DHT22;800;48.824;9.346;2023-12-14T03:56:13;13.20;65.80
1614;DHT22;800;48.824;9.346;2023-12-14T03:58:39;13.20;65.10
1614;DHT22;800;48.824;9.346;2023-12-14T04:01:04;13.20;65.10
1614;DHT22;800;48.824;9.346;2023-12-14T04:03:30;13.20;65.20
1614;DHT22;800;48.824;9.346;2023-12-14T04:05:55;13.30;65.40
1614;DHT22;800;48.824;9.346;2023-12-14T04:08:21;13.20;65.40
1614;DHT22;800;48.824;9.346;2023-12-14T04:10:47;13.20;65.60
1614;DHT22;800;48.824;9.346;2023-12-14T04:13:12;13.20;65.70
1614;DHT22;800;48.824;9.346;2023-12-14T04:15:38;13.20;65.70
1614;DHT22;800;48.824;9.346;2023-12-14T04:18:03;13.20;65.60
1614;DHT22;800;48.824;9.346;2023-12-14T04:20:29;13.20;65.70
1614;DHT22;800;48.824;9.346;2023-12-14T04:22:55;13.20;66.40
1614;DHT22;800;48.824;9.346;2023-12-14T04:25:20;13.20;65.70
1614;DHT22;800;48.824;9.346;2023-12-14T04:27:46;13.20;65.90
1614;DHT22;800;48.824;9.346;2023-12-14T04:30:11;13.20;65.90
1614;DHT22;800;48.824;9.346;2023-12-14T04:32:38;13.20;65.80
1614;DHT22;800;48.824;9.346;2023-12-14T04:35:04;13.20;65.70
1614;DHT22;800;48.824;9.346;2023-12-14T04:37:30;13.20;65.70
1614;DHT22;800;48.824;9.346;2023-12-14T04:39:57;13.20;65.80
1614;DHT22;800;48.824;9.346;2023-12-14T04:42:22;13.20;65.70
1614;DHT22;800;48.824;9.346;2023-12-14T04:44:48;13.20;65.60
1614;DHT22;800;48.824;9.346;2023-12-14T04:47:14;13.20;65.70
1614;DHT22;800;48.824;9.346;2023-12-14T04:49:40;13.20;65.70
1614;DHT22;800;48.824;9.346;2023-12-14T04:52:05;13.20;65.80
1614;DHT22;800;48.824;9.346;2023-12-14T04:54:31;13.20;65.90
1614;DHT22;800;48.824;9.346;2023-12-14T04:56:57;13.20;66.00
1614;DHT22;800;48.824;9.346;2023-12-14T04:59:22;13.20;66.10
1614;DHT22;800;48.824;9.346;2023-12-14T05:01:48;13.20;66.10
1614;DHT22;800;48.824;9.346;2023-12-14T05:04:13;13.20;66.10
1614;DHT22;800;48.824;9.346;2023-12-14T05:06:39;13.20;66.10
1614;DHT22;800;48.824;9.346;2023-12-14T05:09:05;13.20;66.10
1614;DHT22;800;48.824;9.346;2023-12-14T05:11:32;13.10;65.90
1614;DHT22;800;48.824;9.346;2023-12-14T05:13:57;13.20;66.00
1614;DHT22;800;48.824;9.346;2023-12-14T05:16:23;13.20;66.90
1614;DHT22;800;48.824;9.346;2023-12-14T05:18:53;13.20;66.20
1614;DHT22;800;48.824;9.346;2023-12-14T05:21:19;13.20;66.30
1614;DHT22;800;48.824;9.346;2023-12-14T05:23:45;13.10;66.50
1614;DHT22;800;48.824;9.346;2023-12-14T05:26:10;13.20;66.70
1614;DHT22;800;48.824;9.346;2023-12-14T05:28:36;13.20;66.80
1614;DHT22;800;48.824;9.346;2023-12-14T05:31:01;13.20;66.90
1614;DHT22;800;48.824;9.346;2023-12-14T05:33:28;13.20;67.00
1614;DHT22;800;48.824;9.346;2023-12-14T05:35:54;13.20;66.90
1614;DHT22;800;48.824;9.346;2023-12-14T05:38:19;13.30;67.20
1614;DHT22;800;48.824;9.346;2023-12-14T05:40:45;13.30;67.40
1614;DHT22;800;48.824;9.346;2023-12-14T05:43:11;13.20;67.40
1614;DHT22;800;48.824;9.346;2023-12-14T05:45:36;13.20;67.40
1614;DHT22;800;48.824;9.346;2023-12-14T05:48:02;13.30;67.60
1614;DHT22;800;48.824;9.346;2023-12-14T05:50:30;13.30;67.40
1614;DHT22;800;48.824;9.346;2023-12-14T05:52:56;13.30;67.40
1614;DHT22;800;48.824;9.346;2023-12-14T05:55:22;13.30;67.30
1614;DHT22;800;48.824;9.346;2023-12-14T05:57:48;13.30;67.20
1614;DHT22;800;48.824;9.346;2023-12-14T06:00:14;13.30;67.40
1614;DHT22;800;48.824;9.346;2023-12-14T06:02:40;13.30;67.20
1614;DHT22;800;48.824;9.346;2023-12-14T06:05:07;13.30;67.20
1614;DHT22;800;48.824;9.346;2023-12-14T06:07:33;13.30;67.00
1614;DHT22;800;48.824;9.346;2023-12-14T06:09:58;13.30;67.00
1614;DHT22;800;48.824;9.346;2023-12-14T06:12:24;13.30;67.00
1614;DHT22;800;48.824;9.346;2023-12-14T06:14:49;13.40;67.10
1614;DHT22;800;48.824;9.346;2023-12-14T06:17:15;13.40;66.90
1614;DHT22;800;48.824;9.346;2023-12-14T06:19:41;13.40;67.40
1614;DHT22;800;48.824;9.346;2023-12-14T06:22:07;13.50;67.80
1614;DHT22;800;48.824;9.346;2023-12-14T06:24:32;13.80;68.00
1614;DHT22;800;48.824;9.346;2023-12-14T06:26:58;13.90;67.10
1614;DHT22;800;48.824;9.346;2023-12-14T06:29:24;13.90;66.20
1614;DHT22;800;48.824;9.346;2023-12-14T06:31:49;14.00;65.90
1614;DHT22;800;48.824;9.346;2023-12-14T06:34:15;14.00;65.10
1614;DHT22;800;48.824;9.346;2023-12-14T06:36:47;14.00;64.80
1614;DHT22;800;48.824;9.346;2023-12-14T06:39:12;14.00;64.90
1614;DHT22;800;48.824;9.346;2023-12-14T06:41:38;14.00;65.00
1614;DHT22;800;48.824;9.346;2023-12-14T06:44:04;14.00;65.10
1614;DHT22;800;48.824;9.346;2023-12-14T06:46:30;14.10;65.40
1614;DHT22;800;48.824;9.346;2023-12-14T06:48:56;14.20;65.00
1614;DHT22;800;48.824;9.346;2023-12-14T06:51:22;14.30;64.40
1614;DHT22;800;48.824;9.346;2023-12-14T06:53:47;14.30;64.00
1614;DHT22;800;48.824;9.346;2023-12-14T06:56:13;14.30;63.90
1614;DHT22;800;48.824;9.346;2023-12-14T06:58:40;14.30;63.70
1614;DHT22;800;48.824;9.346;2023-12-14T07:01:07;14.30;63.50
1614;DHT22;800;48.824;9.346;2023-12-14T07:03:33;14.30;63.40
1614;DHT22;800;48.824;9.346;2023-12-14T07:05:59;14.20;63.20
1614;DHT22;800;48.824;9.346;2023-12-14T07:08:24;14.20;63.30
1614;DHT22;800;48.824;9.346;2023-12-14T07:10:50;14.20;63.70
1614;DHT22;800;48.824;9.346;2023-12-14T07:13:16;14.20;63.90
1614;DHT22;800;48.824;9.346;2023-12-14T07:15:42;14.20;64.00
1614;DHT22;800;48.824;9.346;2023-12-14T07:18:07;14.20;63.90
1614;DHT22;800;48.824;9.346;2023-12-14T07:20:33;14.20;63.90
1614;DHT22;800;48.824;9.346;2023-12-14T07:22:58;14.20;63.80
1614;DHT22;800;48.824;9.346;2023-12-14T07:25:24;14.20;63.70
1614;DHT22;800;48.824;9.346;2023-12-14T07:27:49;14.20;63.80
1614;DHT22;800;48.824;9.346;2023-12-14T07:30:16;14.30;63.90
1614;DHT22;800;48.824;9.346;2023-12-14T07:32:42;14.40;64.20
1614;DHT22;800;48.824;9.346;2023-12-14T07:35:08;14.50;63.80
1614;DHT22;800;48.824;9.346;2023-12-14T07:37:33;14.50;63.50
1614;DHT22;800;48.824;9.346;2023-12-14T07:39:59;14.60;63.30
1614;DHT22;800;48.824;9.346;2023-12-14T07:42:25;14.70;62.90
1614;DHT22;800;48.824;9.346;2023-12-14T07:44:51;14.70;62.70
1614;DHT22;800;48.824;9.346;2023-12-14T07:47:16;14.70;62.20
1614;DHT22;800;48.824;9.346;2023-12-14T07:49:42;14.70;62.00
1614;DHT22;800;48.824;9.346;2023-12-14T07:52:08;14.70;61.90
1614;DHT22;800;48.824;9.346;2023-12-14T07:54:35;14.70;61.60
1614;DHT22;800;48.824;9.346;2023-12-14T07:57:00;14.80;61.70
1614;DHT22;800;48.824;9.346;2023-12-14T07:59:26;14.70;61.30
1614;DHT22;800;48.824;9.346;2023-12-14T08:01:51;14.70;61.40
1614;DHT22;800;48.824;9.346;2023-12-14T08:04:17;14.60;61.60
1614;DHT22;800;48.824;9.346;2023-12-14T08:06:42;14.60;61.60
1614;DHT22;800;48.824;9.346;2023-12-14T08:09:08;14.60;61.80
1614;DHT22;800;48.824;9.346;2023-12-14T08:11:34;14.50;62.10
1614;DHT22;800;48.824;9.346;2023-12-14T08:13:59;14.50;62.40
1614;DHT22;800;48.824;9.346;2023-12-14T08:16:25;14.50;62.70
1614;DHT22;800;48.824;9.346;2023-12-14T08:18:51;14.40;63.00
1614;DHT22;800;48.824;9.346;2023-12-14T08:21:17;14.50;63.50
1614;DHT22;800;48.824;9.346;2023-12-14T08:23:43;14.50;63.50
1614;DHT22;800;48.824;9.346;2023-12-14T08:26:09;14.50;63.50
1614;DHT22;800;48.824;9.346;2023-12-14T08:28:37;14.50;64.10
1614;DHT22;800;48.824;9.346;2023-12-14T08:31:03;14.50;63.30
1614;DHT22;800;48.824;9.346;2023-12-14T08:33:29;14.60;63.60
1614;DHT22;800;48.824;9.346;2023-12-14T08:35:55;14.60;63.70
1614;DHT22;800;48.824;9.346;2023-12-14T08:38:21;14.60;63.60
1614;DHT22;800;48.824;9.346;2023-12-14T08:40:47;14.70;63.80
1614;DHT22;800;48.824;9.346;2023-12-14T08:43:12;14.70;63.60
1614;DHT22;800;48.824;9.346;2023-12-14T08:45:38;14.70;63.40
1614;DHT22;800;48.824;9.346;2023-12-14T08:48:04;14.70;63.40
1614;DHT22;800;48.824;9.346;2023-12-14T08:50:30;14.80;63.50
1614;DHT22;800;48.824;9.346;2023-12-14T08:52:55;14.80;64.20
1614;DHT22;800;48.824;9.346;2023-12-14T08:55:24;14.80;63.50
1614;DHT22;800;48.824;9.346;2023-12-14T08:57:50;14.80;63.40
1614;DHT22;800;48.824;9.346;2023-12-14T09:00:16;14.80;63.50
1614;DHT22;800;48.824;9.346;2023-12-14T09:02:43;14.80;63.60
1614;DHT22;800;48.824;9.346;2023-12-14T09:05:14;14.90;63.40
1614;DHT22;800;48.824;9.346;2023-12-14T09:07:41;14.90;63.70
1614;DHT22;800;48.824;9.346;2023-12-14T09:10:07;14.90;64.50
1614;DHT22;800;48.824;9.346;2023-12-14T09:12:33;14.90;63.50
1614;DHT22;800;48.824;9.346;2023-12-14T09:15:00;14.90;63.40
1614;DHT22;800;48.824;9.346;2023-12-14T09:17:25;15.00;63.60
1614;DHT22;800;48.824;9.346;2023-12-14T09:19:51;15.00;63.40
1614;DHT22;800;48.824;9.346;2023-12-14T09:22:17;15.10;63.40
1614;DHT22;800;48.824;9.346;2023-12-14T09:24:43;15.10;63.30
1614;DHT22;800;48.824;9.346;2023-12-14T09:27:08;15.10;63.30
1614;DHT22;800;48.824;9.346;2023-12-14T09:29:34;15.20;63.30
1614;DHT22;800;48.824;9.346;2023-12-14T09:32:00;15.20;63.30
1614;DHT22;800;48.824;9.346;2023-12-14T09:34:25;15.20;63.10
1614;DHT22;800;48.824;9.346;2023-12-14T09:36:51;15.20;62.90
1614;DHT22;800;48.824;9.346;2023-12-14T09:39:17;15.20;63.10
1614;DHT22;800;48.824;9.346;2023-12-14T09:41:44;15.30;63.30
1614;DHT22;800;48.824;9.346;2023-12-14T09:44:11;15.30;63.20
1614;DHT22;800;48.824;9.346;2023-12-14T09:46:37;15.30;63.10
1614;DHT22;800;48.824;9.346;2023-12-14T09:49:04;15.40;64.00
1614;DHT22;800;48.824;9.346;2023-12-14T09:51:30;15.30;63.50
1614;DHT22;800;48.824;9.346;2023-12-14T09:53:56;15.30;62.70
1614;DHT22;800;48.824;9.346;2023-12-14T09:56:27;15.10;62.30
1614;DHT22;800;48.824;9.346;2023-12-14T09:58:53;14.90;62.90
1614;DHT22;800;48.824;9.346;2023-12-14T10:01:23;14.70;63.90
1614;DHT22;800;48.824;9.346;2023-12-14T10:03:49;14.50;64.50
1614;DHT22;800;48.824;9.346;2023-12-14T10:06:15;14.50;64.10
1614;DHT22;800;48.824;9.346;2023-12-14T10:08:40;14.60;63.80
1614;DHT22;800;48.824;9.346;2023-12-14T10:11:15;14.60;64.10
1614;DHT22;800;48.824;9.346;2023-12-14T10:13:41;14.70;63.20
1614;DHT22;800;48.824;9.346;2023-12-14T10:16:07;14.70;63.70
1614;DHT22;800;48.824;9.346;2023-12-14T10:18:33;14.70;64.10
1614;DHT22;800;48.824;9.346;2023-12-14T10:21:02;14.80;64.00
1614;DHT22;800;48.824;9.346;2023-12-14T10:23:28;14.90;63.60
1614;DHT22;800;48.824;9.346;2023-12-14T10:25:54;15.00;63.80
1614;DHT22;800;48.824;9.346;2023-12-14T10:28:20;15.10;64.00
1614;DHT22;800;48.824;9.346;2023-12-14T10:30:47;15.20;64.20
1614;DHT22;800;48.824;9.346;2023-12-14T10:33:13;15.20;64.00
1614;DHT22;800;48.824;9.346;2023-12-14T10:35:39;15.20;63.60
1614;DHT22;800;48.824;9.346;2023-12-14T10:38:07;15.20;63.50
1614;DHT22;800;48.824;9.346;2023-12-14T10:40:35;15.10;63.70
1614;DHT22;800;48.824;9.346;2023-12-14T10:43:06;15.10;64.00
1614;DHT22;800;48.824;9.346;2023-12-14T10:45:33;15.00;63.90
1614;DHT22;800;48.824;9.346;2023-12-14T10:47:59;15.00;63.80
1614;DHT22;800;48.824;9.346;2023-12-14T10:50:30;14.90;64.20
1614;DHT22;800;48.824;9.346;2023-12-14T10:52:59;14.90;64.40
1614;DHT22;800;48.824;9.346;2023-12-14T10:55:43;14.90;64.20
1614;DHT22;800;48.824;9.346;2023-12-14T10:58:11;15.00;64.20
1614;DHT22;800;48.824;9.346;2023-12-14T11:00:37;14.90;64.30
1614;DHT22;800;48.824;9.346;2023-12-14T11:03:06;14.80;64.20
1614;DHT22;800;48.824;9.346;2023-12-14T11:05:33;14.70;64.60
1614;DHT22;800;48.824;9.346;2023-12-14T11:08:04;14.70;64.90
1614;DHT22;800;48.824;9.346;2023-12-14T11:10:42;14.70;64.90
1614;DHT22;800;48.824;9.346;2023-12-14T11:13:13;14.80;65.00
1614;DHT22;800;48.824;9.346;2023-12-14T11:15:49;14.80;65.00
1614;DHT22;800;48.824;9.346;2023-12-14T11:23:12;14.80;65.30
1614;DHT22;800;48.824;9.346;2023-12-14T11:25:40;14.90;65.10
1614;DHT22;800;48.824;9.346;2023-12-14T11:28:09;15.00;66.00
1614;DHT22;800;48.824;9.346;2023-12-14T11:30:37;15.00;65.10
1614;DHT22;800;48.824;9.346;2023-12-14T11:33:03;15.10;65.30
1614;DHT22;800;48.824;9.346;2023-12-14T11:35:29;15.10;65.10
1614;DHT22;800;48.824;9.346;2023-12-14T11:37:58;15.10;65.20
1614;DHT22;800;48.824;9.346;2023-12-14T11:40:25;15.20;65.30
1614;DHT22;800;48.824;9.346;2023-12-14T11:42:59;15.20;64.90
1614;DHT22;800;48.824;9.346;2023-12-14T11:45:25;15.30;64.70
1614;DHT22;800;48.824;9.346;2023-12-14T11:47:51;15.30;64.60
1614;DHT22;800;48.824;9.346;2023-12-14T11:50:17;15.30;64.90
1614;DHT22;800;48.824;9.346;2023-12-14T11:52:43;15.30;64.90
1614;DHT22;800;48.824;9.346;2023-12-14T11:55:12;15.30;64.60
1614;DHT22;800;48.824;9.346;2023-12-14T11:57:39;15.30;64.60
1614;DHT22;800;48.824;9.346;2023-12-14T12:00:11;15.40;64.50
1614;DHT22;800;48.824;9.346;2023-12-14T12:02:37;15.30;64.10
1614;DHT22;800;48.824;9.346;2023-12-14T12:05:03;15.20;63.50
1614;DHT22;800;48.824;9.346;2023-12-14T12:07:28;15.10;63.90
1614;DHT22;800;48.824;9.346;2023-12-14T12:09:54;15.00;64.10
1614;DHT22;800;48.824;9.346;2023-12-14T12:12:21;15.00;64.10
1614;DHT22;800;48.824;9.346;2023-12-14T12:14:46;15.00;64.10
1614;DHT22;800;48.824;9.346;2023-12-14T12:17:14;14.90;64.00
1614;DHT22;800;48.824;9.346;2023-12-14T12:19:41;14.90;64.10
1614;DHT22;800;48.824;9.346;2023-12-14T12:22:08;14.90;63.60
1614;DHT22;800;48.824;9.346;2023-12-14T12:24:34;14.90;63.80
1614;DHT22;800;48.824;9.346;2023-12-14T12:26:59;14.80;63.50
1614;DHT22;800;48.824;9.346;2023-12-14T12:29:25;14.60;63.40
1614;DHT22;800;48.824;9.346;2023-12-14T12:31:50;14.70;63.80
1614;DHT22;800;48.824;9.346;2023-12-14T12:34:17;14.60;63.60
1614;DHT22;800;48.824;9.346;2023-12-14T12:36:43;14.60;63.70
1614;DHT22;800;48.824;9.346;2023-12-14T12:39:09;14.70;63.50
1614;DHT22;800;48.824;9.346;2023-12-14T12:41:35;14.50;63.60
1614;DHT22;800;48.824;9.346;2023-12-14T12:44:06;14.70;64.00
1614;DHT22;800;48.824;9.346;2023-12-14T12:46:33;14.70;64.20
1614;DHT22;800;48.824;9.346;2023-12-14T12:51:25;14.70;64.10
1614;DHT22;800;48.824;9.346;2023-12-14T12:53:52;14.60;64.60
1614;DHT22;800;48.824;9.346;2023-12-14T12:56:17;14.40;64.10
1614;DHT22;800;48.824;9.346;2023-12-14T12:58:43;14.10;64.60
1614;DHT22;800;48.824;9.346;2023-12-14T13:01:08;14.10;65.40
1614;DHT22;800;48.824;9.346;2023-12-14T13:03:34;14.00;63.70
1614;DHT22;800;48.824;9.346;2023-12-14T13:05:59;13.90;64.30
1614;DHT22;800;48.824;9.346;2023-12-14T13:08:25;14.00;63.80
1614;DHT22;800;48.824;9.346;2023-12-14T13:10:51;14.00;63.70
1614;DHT22;800;48.824;9.346;2023-12-14T13:13:17;14.10;63.00
1614;DHT22;800;48.824;9.346;2023-12-14T13:15:43;14.20;62.50
1614;DHT22;800;48.824;9.346;2023-12-14T13:18:08;14.20;62.50
1614;DHT22;800;48.824;9.346;2023-12-14T13:20:34;14.20;62.90
1614;DHT22;800;48.824;9.346;2023-12-14T13:23:01;14.20;63.00
1614;DHT22;800;48.824;9.346;2023-12-14T13:25:26;14.20;63.20
1614;DHT22;800;48.824;9.346;2023-12-14T13:27:52;14.30;63.20
1614;DHT22;800;48.824;9.346;2023-12-14T13:30:17;14.30;63.40
1614;DHT22;800;48.824;9.346;2023-12-14T13:32:43;14.30;63.20
1614;DHT22;800;48.824;9.346;2023-12-14T13:35:09;14.30;63.40
1614;DHT22;800;48.824;9.346;2023-12-14T13:37:34;14.20;64.30
1614;DHT22;800;48.824;9.346;2023-12-14T13:40:00;14.10;64.50
1614;DHT22;800;48.824;9.346;2023-12-14T13:42:26;14.00;65.10
1614;DHT22;800;48.824;9.346;2023-12-14T13:44:52;13.90;65.60
1614;DHT22;800;48.824;9.346;2023-12-14T13:47:17;13.90;65.70
1614;DHT22;800;48.824;9.346;2023-12-14T13:49:43;14.00;65.60
1614;DHT22;800;48.824;9.346;2023-12-14T13:52:08;14.00;65.80
1614;DHT22;800;48.824;9.346;2023-12-14T13:54:34;13.90;66.20
1614;DHT22;800;48.824;9.346;2023-12-14T13:57:02;13.90;66.40
1614;DHT22;800;48.824;9.346;2023-12-14T13:59:27;13.90;66.60
1614;DHT22;800;48.824;9.346;2023-12-14T14:01:53;13.90;66.50
1614;DHT22;800;48.824;9.346;2023-12-14T14:04:19;13.90;66.30
1614;DHT22;800;48.824;9.346;2023-12-14T14:06:44;13.90;66.20
1614;DHT22;800;48.824;9.346;2023-12-14T14:09:10;14.00;66.40
1614;DHT22;800;48.824;9.346;2023-12-14T14:11:36;14.00;66.20
1614;DHT22;800;48.824;9.346;2023-12-14T14:14:02;14.10;66.20
1614;DHT22;800;48.824;9.346;2023-12-14T14:16:29;14.10;66.30
1614;DHT22;800;48.824;9.346;2023-12-14T14:18:55;14.10;66.40
1614;DHT22;800;48.824;9.346;2023-12-14T14:21:20;14.10;66.50
1614;DHT22;800;48.824;9.346;2023-12-14T14:23:46;14.00;65.90
1614;DHT22;800;48.824;9.346;2023-12-14T14:26:11;13.90;66.10
1614;DHT22;800;48.824;9.346;2023-12-14T14:28:37;13.80;66.40
1614;DHT22;800;48.824;9.346;2023-12-14T14:31:03;13.80;66.30
1614;DHT22;800;48.824;9.346;2023-12-14T14:33:28;13.80;66.40
1614;DHT22;800;48.824;9.346;2023-12-14T14:35:54;13.80;66.20
1614;DHT22;800;48.824;9.346;2023-12-14T14:38:19;13.80;66.60
1614;DHT22;800;48.824;9.346;2023-12-14T14:40:45;13.80;66.60
1614;DHT22;800;48.824;9.346;2023-12-14T14:43:11;13.80;66.60
1614;DHT22;800;48.824;9.346;2023-12-14T14:45:36;13.90;66.60
1614;DHT22;800;48.824;9.346;2023-12-14T14:48:05;13.90;66.50
1614;DHT22;800;48.824;9.346;2023-12-14T14:50:31;13.90;66.50
1614;DHT22;800;48.824;9.346;2023-12-14T14:52:58;13.90;66.30
1614;DHT22;800;48.824;9.346;2023-12-14T14:55:24;13.80;66.20
1614;DHT22;800;48.824;9.346;2023-12-14T14:57:51;13.80;66.10
1614;DHT22;800;48.824;9.346;2023-12-14T15:00:17;13.80;66.10
1614;DHT22;800;48.824;9.346;2023-12-14T15:02:43;13.80;66.30
1614;DHT22;800;48.824;9.346;2023-12-14T15:05:09;13.80;66.30
1614;DHT22;800;48.824;9.346;2023-12-14T15:07:35;13.80;66.20
1614;DHT22;800;48.824;9.346;2023-12-14T15:10:00;13.90;66.20
1614;DHT22;800;48.824;9.346;2023-12-14T15:12:26;13.90;66.20
1614;DHT22;800;48.824;9.346;2023-12-14T15:14:51;13.90;66.10
1614;DHT22;800;48.824;9.346;2023-12-14T15:17:17;14.00;66.10
1614;DHT22;800;48.824;9.346;2023-12-14T15:19:44;13.90;66.20
1614;DHT22;800;48.824;9.346;2023-12-14T15:22:12;14.00;66.20
1614;DHT22;800;48.824;9.346;2023-12-14T15:24:38;14.00;66.10
1614;DHT22;800;48.824;9.346;2023-12-14T15:27:04;14.00;67.10
1614;DHT22;800;48.824;9.346;2023-12-14T15:29:30;14.00;66.50
1614;DHT22;800;48.824;9.346;2023-12-14T15:31:55;14.00;66.60
1614;DHT22;800;48.824;9.346;2023-12-14T15:34:21;14.00;66.70
1614;DHT22;800;48.824;9.346;2023-12-14T15:36:46;14.10;66.60
1614;DHT22;800;48.824;9.346;2023-12-14T15:39:12;14.10;66.50
1614;DHT22;800;48.824;9.346;2023-12-14T15:41:37;14.20;66.20
1614;DHT22;800;48.824;9.346;2023-12-14T15:44:03;14.20;66.00
1614;DHT22;800;48.824;9.346;2023-12-14T15:46:28;14.20;66.00
1614;DHT22;800;48.824;9.346;2023-12-14T15:48:54;14.20;66.00
1614;DHT22;800;48.824;9.346;2023-12-14T15:51:20;14.20;65.90
1614;DHT22;800;48.824;9.346;2023-12-14T15:53:46;14.20;66.00
1614;DHT22;800;48.824;9.346;2023-12-14T15:56:11;14.20;66.20
1614;DHT22;800;48.824;9.346;2023-12-14T15:58:37;14.20;66.10
1614;DHT22;800;48.824;9.346;2023-12-14T16:01:03;14.20;66.10
1614;DHT22;800;48.824;9.346;2023-12-14T16:03:28;14.20;66.20
1614;DHT22;800;48.824;9.346;2023-12-14T16:05:54;14.20;65.90
1614;DHT22;800;48.824;9.346;2023-12-14T16:08:20;14.30;65.60
1614;DHT22;800;48.824;9.346;2023-12-14T16:10:45;14.40;65.50
1614;DHT22;800;48.824;9.346;2023-12-14T16:13:13;14.40;65.20
1614;DHT22;800;48.824;9.346;2023-12-14T16:15:39;14.40;65.00